Pagrindinis puslapis
METAR-TAF:

METAR-TAF

Oro uostai :

Abu Dabis, Jungtiniai Arabų Emyratai

platuma: 24-26N, ilguma: 054-28E, Aukštis: 5 m

Dabartinis oras

Ataskaita buvo paskelbta 15 minutes, ne 14:00 UTC
Vėjas 11 kt iš Šiaurės/Šiaurės Vakarų
Temperatūra 36°C
Drėgmė 47%
Slėgis 1003 hPa
Matomumas 10 km arba daugiau
nėra debesų žemiau 1500 m ir nėra kamuolinių lietaus debesų

METAR: OMAD 191400Z 33011KT CAVOK 36/23 Q1003 NOSIG

Laikas: 18:15 (14:15 UTC)

Prognozė

Ataskaita buvo paskelbta 3 valandos ir 15 minutes, ne 11:00 UTC
Prognozė galioja nuo 19 metu 12 UTC su 20 metu 18 UTC
Vėjas 11 kt iš Šiaurės/Šiaurės Vakarų
Matomumas: 8000 m
Tapsmas
nuo 19 metu 17 UTC su 19 metu 19 UTC
Vėjas 5 kt iš Rytų/Šiaurės Rytų
Tapsmas
nuo 20 metu 01 UTC su 20 metu 03 UTC
Vėjas 10 kt iš Pietų/Pietryčių
Tapsmas
nuo 20 metu 09 UTC su 20 metu 11 UTC
Vėjas 12 kt iš Šiaurės/Šiaurės Vakarų

TAF: OMAD 191100Z 1912/2018 34011KT 8000 NSC BECMG 1917/1919 06005KT BECMG 2001/2003 15010KT BECMG 2009/2011 33012KT

Orai ataskaitas ir orų prognozės (METAR, TAF).

turimą stotys yra geltonos ir raudonos taškus žemėlapyje.

Perkelti pele per norėdami pamatyti stoties vardą.

Tada spustelėkite, norėdami matyti oro stebėjimo ir prognozės.

Norėdami pakeisti žemėlapį: spustelėkite ant žalios mygtukų su juodo kryžiaus žemyn,; žalią mygtuką su brūkšneliu, jei norite nutolinti; arba žalių rodyklių gretimoms žemėlapius.


METAR-TAF: